Time;durP1;ratioP1;P1;durP2;ratioP2;P2;SDS_P1;SDS_P2;PMS_P1;PMS_P2;Temp;Humidity;BMP_temperature;BMP_pressure;BME280_temperature;BME280_humidity;BME280_pressure;Samples;Min_cycle;Max_cycle;Signal;HPM_P1;HPM_P2
2022/07/29 00:00:21;;;;;;;0.10;0.10;;;;;;;22.69;53.98;101186.50;5139144;27;20500;-40
2022/07/29 00:02:46;;;;;;;0.10;0.10;;;;;;;22.70;53.88;101174.25;5137454;27;20396;-40
2022/07/29 00:05:13;;;;;;;0.10;0.10;;;;;;;22.70;54.03;101177.84;5136808;27;20039;-42
2022/07/29 00:07:39;;;;;;;0.10;0.10;;;;;;;22.69;54.11;101173.44;5133934;27;20515;-41
2022/07/29 00:10:05;;;;;;;0.10;0.10;;;;;;;22.70;54.04;101168.69;5120006;27;20067;-40
2022/07/29 00:12:31;;;;;;;0.10;0.10;;;;;;;22.69;53.96;101173.44;5136435;27;20057;-39
2022/07/29 00:14:57;;;;;;;0.10;0.10;;;;;;;22.70;53.91;101168.69;5119477;27;20051;-41
2022/07/29 00:17:23;;;;;;;0.10;0.10;;;;;;;22.69;53.94;101162.31;5136561;27;20046;-40
2022/07/29 00:19:49;;;;;;;0.10;0.10;;;;;;;22.70;53.77;101160.38;5124730;27;20042;-42
2022/07/29 00:22:15;;;;;;;0.10;0.10;;;;;;;22.69;53.73;101153.19;5129620;28;20447;-41
2022/07/29 00:24:41;;;;;;;0.10;0.10;;;;;;;22.69;53.87;101148.44;5130134;28;20047;-40
2022/07/29 00:27:06;;;;;;;0.10;0.10;;;;;;;22.68;54.16;101138.47;5136613;27;20046;-41
2022/07/29 00:29:32;;;;;;;0.10;0.10;;;;;;;22.70;54.03;101135.38;5138597;27;20050;-41
2022/07/29 00:32:00;;;;;;;0.10;0.10;;;;;;;22.69;54.00;101137.34;5140100;27;20134;-41
2022/07/29 00:37:11;;;;;;;0.10;0.10;;;;;;;22.69;53.99;101128.19;5120274;27;20075;-40
2022/07/29 00:39:37;;;;;;;0.10;0.10;;;;;;;22.69;53.90;101126.25;5138424;27;20054;-41
2022/07/29 00:42:04;;;;;;;0.10;0.10;;;;;;;22.69;54.00;101123.47;5130132;27;20039;-41
2022/07/29 00:44:30;;;;;;;0.10;0.10;;;;;;;22.68;53.85;101124.59;5140772;27;20468;-41
2022/07/29 00:46:55;;;;;;;0.10;0.10;;;;;;;22.69;53.98;101117.09;5137312;27;20038;-40
2022/07/29 00:49:21;;;;;;;0.10;0.10;;;;;;;22.70;53.69;101114.00;5138266;27;20392;-41
2022/07/29 00:51:48;;;;;;;0.10;0.10;;;;;;;22.70;53.78;101104.84;5140356;27;20462;-41
2022/07/29 00:54:14;;;;;;;0.10;0.10;;;;;;;22.70;54.15;101110.41;5140566;27;20080;-41
2022/07/29 00:56:40;;;;;;;0.10;0.10;;;;;;;22.70;53.94;101111.22;5137894;27;20047;-41
2022/07/29 00:59:05;;;;;;;0.10;0.10;;;;;;;22.70;53.75;101104.84;5138768;27;20089;-41
2022/07/29 01:01:31;;;;;;;0.20;0.20;;;;;;;22.70;53.77;101093.75;5140671;27;20043;-41
2022/07/29 01:03:57;;;;;;;0.10;0.10;;;;;;;22.70;53.91;101089.00;5141020;27;20419;-40
2022/07/29 01:06:23;;;;;;;0.10;0.10;;;;;;;22.70;53.82;101090.97;5144078;27;20046;-39
2022/07/29 01:08:50;;;;;;;0.10;0.10;;;;;;;22.70;53.86;101089.00;5140178;27;20139;-40
2022/07/29 01:11:16;;;;;;;0.10;0.10;;;;;;;22.69;53.94;101090.16;5143560;27;20069;-41
2022/07/29 01:13:43;;;;;;;0.10;0.10;;;;;;;22.69;53.82;101095.69;5140704;27;20552;-41
2022/07/29 01:16:30;;;;;;;0.10;0.10;;;;;;;22.70;53.86;101091.78;5139670;27;20081;-41
2022/07/29 01:19:00;;;;;;;0.10;0.10;;;;;;;22.70;53.81;101093.75;5123250;27;20039;-41
2022/07/29 01:21:40;;;;;;;0.10;0.10;;;;;;;22.69;53.65;101092.94;5141133;27;20043;-41
2022/07/29 01:24:20;;;;;;;0.10;0.10;;;;;;;22.70;53.89;101097.34;5109961;27;20058;-42
2022/07/29 01:29:47;;;;;;;0.10;0.10;;;;;;;22.70;53.79;101102.06;5168309;27;20124;-39
2022/07/29 01:32:19;;;;;;;0.10;0.10;;;;;;;22.69;53.77;101095.69;5145792;27;20116;-38
2022/07/29 01:35:05;;;;;;;0.10;0.10;;;;;;;22.69;53.92;101095.69;5129318;27;20042;-38
2022/07/29 01:37:44;;;;;;;0.10;0.10;;;;;;;22.69;53.98;101097.66;5148861;27;20079;-37
2022/07/29 01:40:19;;;;;;;0.10;0.10;;;;;;;22.70;53.87;101090.97;5104943;27;20078;-38
2022/07/29 01:42:49;;;;;;;0.20;0.20;;;;;;;22.69;53.79;101087.38;5119802;27;20493;-39
2022/07/29 01:45:43;;;;;;;0.10;0.10;;;;;;;22.69;53.92;101087.38;5094024;27;20079;-40
2022/07/29 01:50:48;;;;;;;0.10;0.10;;;;;;;22.69;53.94;101092.94;5165547;27;20116;-39
2022/07/29 01:53:31;;;;;;;0.10;0.10;;;;;;;22.69;53.67;101079.03;5137639;27;20067;-39
2022/07/29 01:56:04;;;;;;;0.10;0.10;;;;;;;22.69;53.87;101090.16;5127787;27;20042;-36
2022/07/29 01:58:32;;;;;;;0.10;0.10;;;;;;;22.70;53.95;101093.75;5149554;27;20071;-38
2022/07/29 02:00:58;;;;;;;0.10;0.10;;;;;;;22.70;53.69;101085.41;5145552;27;20079;-38
2022/07/29 02:03:24;;;;;;;0.10;0.10;;;;;;;22.71;53.83;101087.06;5137217;27;20496;-37
2022/07/29 02:05:50;;;;;;;0.10;0.10;;;;;;;22.70;53.75;101094.56;5135932;27;20488;-39
2022/07/29 02:08:18;;;;;;;0.10;0.10;;;;;;;22.71;53.88;101095.38;5147190;27;20108;-38
2022/07/29 02:10:44;;;;;;;0.10;0.10;;;;;;;22.70;53.82;101099.28;5132832;27;20078;-37
2022/07/29 02:13:11;;;;;;;0.10;0.10;;;;;;;22.70;53.76;101127.06;5141483;27;20557;-38
2022/07/29 02:15:37;;;;;;;0.10;0.10;;;;;;;22.69;53.70;101134.56;5122402;27;20092;-37
2022/07/29 02:18:07;;;;;;;0.10;0.10;;;;;;;22.70;53.92;101135.38;5144985;27;20097;-37
2022/07/29 02:20:33;;;;;;;0.10;0.10;;;;;;;22.69;54.04;101131.78;5143676;27;20079;-37
2022/07/29 02:23:00;;;;;;;0.10;0.10;;;;;;;22.70;53.79;101124.28;5143752;27;20541;-37
2022/07/29 02:25:26;;;;;;;0.10;0.10;;;;;;;22.69;53.94;101120.69;5151374;27;20126;-38
2022/07/29 02:28:03;;;;;;;0.10;0.10;;;;;;;22.70;53.90;101119.56;5123192;27;20051;-37
2022/07/29 02:30:30;;;;;;;0.10;0.10;;;;;;;22.70;53.92;101125.09;5144467;27;20478;-39
2022/07/29 02:32:56;;;;;;;0.10;0.10;;;;;;;22.70;54.11;101130.66;5137380;27;20452;-39
2022/07/29 02:35:22;;;;;;;0.10;0.10;;;;;;;22.69;54.10;101122.63;5141766;27;20380;-39
2022/07/29 02:38:49;;;;;;;0.10;0.10;;;;;;;22.70;53.91;101127.88;5140603;27;20078;-37
2022/07/29 02:40:36;;;;;;;0.10;0.10;;;;;;;22.69;53.87;101108.75;5125416;27;20145;-38
2022/07/29 02:43:05;;;;;;;0.10;0.10;;;;;;;22.69;53.98;101101.25;5140971;27;20074;-39
2022/07/29 02:45:32;;;;;;;0.10;0.10;;;;;;;22.70;53.94;101105.66;5115541;27;20515;-39
2022/07/29 02:47:59;;;;;;;0.10;0.10;;;;;;;22.70;54.06;101119.56;5146524;27;20130;-37
2022/07/29 02:50:30;;;;;;;0.10;0.10;;;;;;;22.70;53.90;101116.78;5142273;27;20086;-38
2022/07/29 02:53:16;;;;;;;0.10;0.10;;;;;;;22.70;53.95;101133.44;5120319;27;20078;-37
2022/07/29 02:55:54;;;;;;;0.10;0.10;;;;;;;22.69;54.14;101119.88;5143302;27;20071;-37
2022/07/29 02:58:28;;;;;;;0.10;0.10;;;;;;;22.69;53.93;101111.53;5153033;27;20073;-39
2022/07/29 03:00:55;;;;;;;0.10;0.10;;;;;;;22.70;53.99;101121.50;5145385;27;20081;-37
2022/07/29 03:03:21;;;;;;;0.10;0.10;;;;;;;22.69;54.07;101129.00;5105255;28;20136;-37
2022/07/29 03:05:47;;;;;;;0.10;0.10;;;;;;;22.69;54.02;101136.53;5131451;27;20087;-37
2022/07/29 03:08:14;;;;;;;0.10;0.10;;;;;;;22.69;54.10;101144.84;5128263;27;20054;-38
2022/07/29 03:10:43;;;;;;;0.10;0.10;;;;;;;22.70;54.17;101152.03;5117357;27;20071;-37
2022/07/29 03:13:09;;;;;;;0.10;0.10;;;;;;;22.69;53.93;101161.50;5100926;27;20495;-39
2022/07/29 03:15:35;;;;;;;0.10;0.10;;;;;;;22.69;54.07;101167.88;5123336;27;20101;-39
2022/07/29 03:18:01;;;;;;;0.10;0.10;;;;;;;22.70;54.17;101179.81;5127652;27;20469;-39
2022/07/29 03:20:27;;;;;;;0.10;0.10;;;;;;;22.70;54.04;101185.34;5129843;27;20095;-39
2022/07/29 03:22:53;;;;;;;0.10;0.10;;;;;;;22.69;54.12;101197.59;5132466;27;20530;-39
2022/07/29 03:25:19;;;;;;;0.10;0.10;;;;;;;22.70;54.12;101207.56;5133309;27;20047;-37
2022/07/29 03:27:46;;;;;;;0.10;0.10;;;;;;;22.69;54.00;101205.94;5127208;27;20490;-37
2022/07/29 03:30:12;;;;;;;0.10;0.10;;;;;;;22.69;54.19;101214.25;5129265;27;20134;-39
2022/07/29 03:32:46;;;;;;;0.10;0.10;;;;;;;22.69;54.02;101211.47;5123543;27;20047;-38
2022/07/29 03:35:13;;;;;;;0.10;0.10;;;;;;;22.68;54.03;101199.56;5127510;27;20097;-37
2022/07/29 03:37:38;;;;;;;0.10;0.10;;;;;;;22.68;54.01;101199.56;5133796;27;20074;-38
2022/07/29 03:40:07;;;;;;;0.10;0.10;;;;;;;22.69;53.65;101187.31;5125768;27;20498;-37
2022/07/29 03:42:33;;;;;;;0.10;0.10;;;;;;;22.70;53.95;101168.69;5122432;27;20079;-39
2022/07/29 03:45:03;;;;;;;0.20;0.20;;;;;;;22.69;54.07;101154.00;5113264;28;20119;-39
2022/07/29 03:47:29;;;;;;;0.10;0.10;;;;;;;22.69;54.17;101139.28;5109432;28;20529;-37
2022/07/29 03:50:15;;;;;;;0.10;0.10;;;;;;;22.68;54.23;101135.69;5098691;28;20036;-36
2022/07/29 03:52:41;;;;;;;0.10;0.10;;;;;;;22.69;54.10;101131.78;5106195;28;20087;-39
2022/07/29 03:55:10;;;;;;;0.10;0.10;;;;;;;22.69;53.85;101125.41;5109511;28;20052;-38
2022/07/29 03:57:37;;;;;;;0.10;0.10;;;;;;;22.69;54.14;101128.19;5102297;28;20051;-38
2022/07/29 04:00:05;;;;;;;0.10;0.10;;;;;;;22.70;54.10;101121.50;5112721;28;20130;-37
2022/07/29 04:02:32;;;;;;;0.10;0.10;;;;;;;22.69;54.20;101111.53;5091157;28;20493;-38
2022/07/29 04:04:58;;;;;;;0.10;0.10;;;;;;;22.69;54.20;101108.75;5114128;28;20522;-38
2022/07/29 04:07:23;;;;;;;0.10;0.10;;;;;;;22.69;53.98;101115.13;5107301;28;20040;-37
2022/07/29 04:09:50;;;;;;;0.10;0.10;;;;;;;22.69;54.07;101123.47;5110865;28;20047;-37
2022/07/29 04:12:15;;;;;;;0.10;0.10;;;;;;;22.69;54.09;101120.69;5101614;28;20040;-37
2022/07/29 04:14:41;;;;;;;0.10;0.10;;;;;;;22.69;54.00;101112.34;5111311;28;20059;-38
2022/07/29 04:17:07;;;;;;;0.10;0.10;;;;;;;22.69;54.06;101111.53;5105958;28;20048;-39
2022/07/29 04:19:33;;;;;;;0.10;0.10;;;;;;;22.68;54.24;101126.53;5106860;28;20085;-39
2022/07/29 04:21:59;;;;;;;0.10;0.10;;;;;;;22.69;54.03;101142.06;5092160;28;20039;-39
2022/07/29 04:24:25;;;;;;;0.10;0.10;;;;;;;22.69;53.90;101153.19;5112280;28;20422;-38
2022/07/29 04:26:51;;;;;;;0.10;0.10;;;;;;;22.70;53.85;101160.38;5066622;28;20047;-39
2022/07/29 04:29:16;;;;;;;0.10;0.10;;;;;;;22.69;53.91;101159.56;5089112;28;20039;-37
2022/07/29 04:31:42;;;;;;;0.10;0.10;;;;;;;22.70;53.69;101143.72;5108107;28;20100;-38
2022/07/29 04:34:09;;;;;;;0.10;0.10;;;;;;;22.70;53.69;101143.72;5105557;28;20051;-39
2022/07/29 04:36:34;;;;;;;0.10;0.10;;;;;;;22.70;53.88;101138.16;5090732;28;20342;-38
2022/07/29 04:39:01;;;;;;;0.10;0.10;;;;;;;22.69;54.06;101154.00;5103487;28;20051;-37
2022/07/29 04:41:27;;;;;;;0.10;0.10;;;;;;;22.69;53.98;101150.41;5108331;28;20110;-37
2022/07/29 04:44:00;;;;;;;0.20;0.20;;;;;;;22.69;53.93;101144.84;5103018;28;20044;-39
2022/07/29 04:46:26;;;;;;;0.10;0.10;;;;;;;22.69;53.76;101139.28;5096405;28;20092;-39
2022/07/29 04:48:52;;;;;;;0.10;0.10;;;;;;;22.67;53.80;101128.50;5086594;28;20043;-38
2022/07/29 04:51:18;;;;;;;0.10;0.10;;;;;;;22.70;53.86;101135.38;5106167;28;20055;-39
2022/07/29 04:53:43;;;;;;;0.10;0.10;;;;;;;22.68;53.97;101129.31;5104391;28;20470;-37
2022/07/29 04:56:09;;;;;;;0.10;0.10;;;;;;;22.68;53.89;101129.31;5107716;28;20074;-36
2022/07/29 04:58:35;;;;;;;0.10;0.10;;;;;;;22.68;53.80;101124.59;5097035;28;20037;-39
2022/07/29 05:01:01;;;;;;;0.10;0.10;;;;;;;22.69;53.79;101122.63;5110435;28;20054;-38
2022/07/29 05:03:26;;;;;;;0.10;0.10;;;;;;;22.68;53.97;101115.44;5104320;28;20062;-39
2022/07/29 05:05:52;;;;;;;0.10;0.10;;;;;;;22.69;53.98;101120.69;5104648;28;20048;-39
2022/07/29 05:08:18;;;;;;;0.10;0.10;;;;;;;22.68;53.72;101118.22;5106375;28;20407;-38
2022/07/29 05:10:43;;;;;;;0.10;0.10;;;;;;;22.68;54.14;101107.13;5111561;28;20073;-38
2022/07/29 05:13:09;;;;;;;0.10;0.10;;;;;;;22.69;53.81;101112.34;5104114;28;20043;-39
2022/07/29 05:15:35;;;;;;;0.10;0.10;;;;;;;22.68;53.88;101101.56;5106860;28;20052;-37
2022/07/29 05:18:01;;;;;;;0.10;0.10;;;;;;;22.68;53.85;101112.66;5092019;28;20134;-38
2022/07/29 05:20:28;;;;;;;0.10;0.10;;;;;;;22.68;54.09;101121.81;5110975;28;20051;-38
2022/07/29 05:22:57;;;;;;;0.10;0.10;;;;;;;22.68;53.90;101132.91;5103272;28;20075;-39
2022/07/29 05:25:23;;;;;;;0.10;0.10;;;;;;;22.68;54.00;101134.88;5105347;28;20076;-38
2022/07/29 05:28:09;;;;;;;0.10;0.10;;;;;;;22.67;54.09;101136.00;5083742;28;20052;-39
2022/07/29 05:30:35;;;;;;;0.10;0.10;;;;;;;22.67;53.77;101139.59;5086730;28;20078;-39
2022/07/29 05:33:00;;;;;;;0.10;0.10;;;;;;;22.67;54.03;101139.59;5084531;28;20498;-37
2022/07/29 05:35:26;;;;;;;0.10;0.10;;;;;;;22.67;53.76;101144.34;5100062;28;20036;-36
2022/07/29 05:37:52;;;;;;;0.10;0.10;;;;;;;22.69;53.78;101139.28;5106675;28;20043;-39
2022/07/29 05:40:17;;;;;;;0.10;0.10;;;;;;;22.67;53.77;101139.59;5107036;28;20494;-39
2022/07/29 05:42:43;;;;;;;0.10;0.10;;;;;;;22.68;53.85;101138.47;5099844;28;20054;-38
2022/07/29 05:45:09;;;;;;;0.10;0.10;;;;;;;22.68;53.72;101145.97;5103372;28;20046;-38
2022/07/29 05:47:35;;;;;;;0.10;0.10;;;;;;;22.68;53.82;101152.34;5102252;28;20136;-39
2022/07/29 05:50:00;;;;;;;0.10;0.10;;;;;;;22.67;53.86;101142.38;5105279;28;20513;-39
2022/07/29 05:52:26;;;;;;;0.10;0.10;;;;;;;22.68;53.70;101145.97;5106610;28;20393;-38
2022/07/29 05:54:52;;;;;;;0.10;0.10;;;;;;;22.68;53.85;101145.97;5088326;28;20040;-39
2022/07/29 05:57:19;;;;;;;0.10;0.10;;;;;;;22.68;53.84;101146.81;5100103;28;20101;-38
2022/07/29 05:59:45;;;;;;;0.10;0.10;;;;;;;22.68;53.72;101152.34;5107727;28;20048;-38
2022/07/29 06:02:11;;;;;;;0.10;0.10;;;;;;;22.68;53.80;101168.19;5103517;28;20490;-38
2022/07/29 06:04:36;;;;;;;0.10;0.10;;;;;;;22.68;53.69;101170.97;5103414;28;20040;-38
2022/07/29 06:07:02;;;;;;;0.10;0.10;;;;;;;22.67;53.74;101175.69;5103498;28;20489;-38
2022/07/29 06:09:28;;;;;;;0.10;0.10;;;;;;;22.67;53.68;101172.91;5113010;28;20089;-38
2022/07/29 06:11:54;;;;;;;0.10;0.10;;;;;;;22.67;53.67;101178.47;5106783;28;20040;-38
2022/07/29 06:14:20;;;;;;;0.10;0.10;;;;;;;22.67;53.87;101188.75;5097964;28;20504;-38
2022/07/29 06:16:45;;;;;;;0.10;0.10;;;;;;;22.67;53.62;101197.09;5103592;28;20118;-37
2022/07/29 06:19:11;;;;;;;0.10;0.10;;;;;;;22.67;53.84;101194.31;5114185;28;20044;-39
2022/07/29 06:21:42;;;;;;;0.10;0.10;;;;;;;22.67;53.78;101195.13;5107009;28;20062;-37
2022/07/29 06:24:07;;;;;;;0.10;0.10;;;;;;;22.67;53.92;101202.63;5072391;28;20160;-38
2022/07/29 06:26:33;;;;;;;0.10;0.10;;;;;;;22.66;53.75;101207.34;5106653;28;20039;-38
2022/07/29 06:29:05;;;;;;;0.10;0.10;;;;;;;22.66;53.76;101215.66;5103166;28;20056;-38
2022/07/29 06:31:31;;;;;;;0.10;0.10;;;;;;;22.67;53.79;101222.06;5085451;28;20100;-38
2022/07/29 06:33:56;;;;;;;0.10;0.10;;;;;;;22.67;53.85;101213.75;5105669;28;20052;-38
2022/07/29 06:36:22;;;;;;;0.10;0.10;;;;;;;22.66;53.76;101225.94;5103997;28;20134;-38
2022/07/29 06:38:50;;;;;;;0.10;0.10;;;;;;;22.67;53.92;101225.66;5111520;28;20048;-38
2022/07/29 06:41:17;;;;;;;0.10;0.10;;;;;;;22.68;53.71;101229.25;5088342;28;20042;-37
2022/07/29 06:43:44;;;;;;;0.10;0.10;;;;;;;22.67;53.85;101230.41;5105341;28;20094;-38
2022/07/29 06:46:20;;;;;;;0.10;0.10;;;;;;;22.66;53.87;101228.72;5091126;28;20062;-39
2022/07/29 06:48:47;;;;;;;0.10;0.10;;;;;;;22.66;53.77;101224.00;5113323;28;20067;-39
2022/07/29 06:51:13;;;;;;;0.10;0.10;;;;;;;22.65;53.70;101219.56;5107482;28;20047;-37
2022/07/29 06:53:39;;;;;;;0.10;0.10;;;;;;;22.66;53.80;101223.16;5102905;28;20047;-39
2022/07/29 06:56:23;;;;;;;0.10;0.10;;;;;;;22.67;53.80;101225.66;5088613;28;20097;-38
2022/07/29 06:58:49;;;;;;;0.10;0.10;;;;;;;22.66;53.67;101212.88;5116829;28;20043;-37
2022/07/29 07:01:15;;;;;;;0.10;0.10;;;;;;;22.67;53.75;101224.84;5112199;28;20039;-36
2022/07/29 07:03:41;;;;;;;0.10;0.10;;;;;;;22.67;53.66;101224.84;5105759;28;20042;-37
2022/07/29 07:06:07;;;;;;;0.10;0.10;;;;;;;22.66;53.71;101232.31;5104505;28;20075;-38
2022/07/29 07:08:39;;;;;;;0.10;0.10;;;;;;;22.66;53.93;101224.00;5107118;28;20044;-39
2022/07/29 07:11:06;;;;;;;0.10;0.10;;;;;;;22.65;53.99;101219.56;5105270;28;20046;-38
2022/07/29 07:13:34;;;;;;;0.10;0.10;;;;;;;22.65;53.82;101230.66;5114229;28;20504;-35
2022/07/29 07:16:02;;;;;;;0.10;0.10;;;;;;;22.66;53.86;101237.03;5098955;28;20048;-37
2022/07/29 07:18:28;;;;;;;0.20;0.20;;;;;;;22.66;53.83;101225.94;5116177;28;20055;-38
2022/07/29 07:20:53;;;;;;;0.10;0.10;;;;;;;22.66;53.85;101228.72;5107936;28;20066;-39
2022/07/29 07:23:19;;;;;;;0.10;0.10;;;;;;;22.66;53.92;101225.94;5117445;28;20130;-39
2022/07/29 07:25:44;;;;;;;0.10;0.10;;;;;;;22.68;53.83;101229.25;5106168;28;20051;-38
2022/07/29 07:28:10;;;;;;;0.10;0.10;;;;;;;22.66;53.79;101221.22;5108829;28;20394;-38
2022/07/29 07:30:36;;;;;;;0.10;0.10;;;;;;;22.65;53.79;101214.03;5110962;28;20143;-39
2022/07/29 07:33:02;;;;;;;0.10;0.10;;;;;;;22.66;53.72;101217.63;5101943;28;20044;-37
2022/07/29 07:35:28;;;;;;;0.10;0.10;;;;;;;22.65;53.80;101225.13;5106617;28;20049;-37
2022/07/29 07:37:55;;;;;;;0.10;0.10;;;;;;;22.64;53.89;101223.47;5089264;28;20043;-37
2022/07/29 07:40:20;;;;;;;0.10;0.10;;;;;;;22.66;53.55;101223.16;5107363;28;20071;-39
2022/07/29 07:42:46;;;;;;;0.10;0.10;;;;;;;22.65;54.05;101216.78;5106771;28;20044;-38
2022/07/29 07:45:12;;;;;;;0.20;0.20;;;;;;;22.65;53.85;101211.25;5107600;28;20046;-37
2022/07/29 07:47:42;;;;;;;0.10;0.10;;;;;;;22.65;53.67;101211.25;5113695;28;20134;-39
2022/07/29 07:50:09;;;;;;;0.10;0.10;;;;;;;22.66;53.76;101206.50;5096497;28;20500;-37
2022/07/29 07:52:51;;;;;;;0.10;0.10;;;;;;;22.65;53.75;101205.69;5091264;28;20089;-37
2022/07/29 07:55:17;;;;;;;0.10;0.10;;;;;;;22.65;53.72;101202.09;5094283;28;20552;-37
2022/07/29 07:57:44;;;;;;;0.10;0.10;;;;;;;22.65;53.79;101197.34;5089344;28;20086;-37
2022/07/29 08:00:09;;;;;;;0.10;0.10;;;;;;;22.65;53.85;101205.69;5107032;28;20358;-36
2022/07/29 08:02:35;;;;;;;0.10;0.10;;;;;;;22.65;53.75;101204.88;5104465;28;20052;-37
2022/07/29 08:05:01;;;;;;;0.10;0.10;;;;;;;22.64;53.98;101197.66;5105782;28;20040;-39
2022/07/29 08:07:27;;;;;;;0.10;0.10;;;;;;;22.66;53.68;101200.97;5110174;28;20043;-37
2022/07/29 08:09:52;;;;;;;0.10;0.10;;;;;;;22.65;53.63;101197.34;5110109;28;20050;-36
2022/07/29 08:12:18;;;;;;;0.10;0.10;;;;;;;22.64;53.89;101197.66;5103854;28;20040;-37
2022/07/29 08:14:43;;;;;;;0.10;0.10;;;;;;;22.65;53.90;101202.09;5109861;28;20048;-37
2022/07/29 08:17:09;;;;;;;0.10;0.10;;;;;;;22.65;53.80;101197.34;5114684;28;20047;-37
2022/07/29 08:19:36;;;;;;;0.10;0.10;;;;;;;22.64;53.82;101192.94;5108252;28;20061;-37
2022/07/29 08:22:02;;;;;;;0.10;0.10;;;;;;;22.65;53.86;101196.53;5109698;28;20047;-38
2022/07/29 08:24:42;;;;;;;0.10;0.10;;;;;;;22.64;53.90;101206.00;5104575;28;20670;-38
2022/07/29 08:27:10;;;;;;;0.10;0.10;;;;;;;22.65;53.79;101208.47;5109857;28;20473;-36
2022/07/29 08:29:56;;;;;;;0.10;0.10;;;;;;;22.64;54.01;101217.09;5095728;28;20059;-36
2022/07/29 08:32:22;;;;;;;0.10;0.10;;;;;;;22.63;53.89;101218.22;5110829;28;20043;-38
2022/07/29 08:35:07;;;;;;;0.10;0.10;;;;;;;22.65;53.77;101222.34;5091864;28;20048;-36
2022/07/29 08:37:33;;;;;;;0.10;0.10;;;;;;;22.64;53.73;101223.47;5114740;28;20218;-37
2022/07/29 08:39:59;;;;;;;0.10;0.10;;;;;;;22.65;53.78;101230.66;5105312;28;20048;-37
2022/07/29 08:42:24;;;;;;;0.10;0.10;;;;;;;22.64;53.72;101223.47;5106821;28;20413;-37
2022/07/29 08:44:50;;;;;;;0.10;0.10;;;;;;;22.64;53.79;101223.47;5105125;28;20414;-38
2022/07/29 08:47:16;;;;;;;0.10;0.10;;;;;;;22.65;53.82;101215.97;5087326;28;20039;-37
2022/07/29 08:49:43;;;;;;;0.10;0.10;;;;;;;22.65;53.86;101204.88;5105499;28;20130;-37
2022/07/29 08:52:11;;;;;;;0.10;0.10;;;;;;;22.64;53.67;101204.03;5114731;28;20120;-38
2022/07/29 08:54:38;;;;;;;0.10;0.10;;;;;;;22.65;53.64;101191.00;5088413;28;20086;-37
2022/07/29 08:57:04;;;;;;;0.10;0.10;;;;;;;22.63;53.76;101210.72;5108609;28;20082;-37
2022/07/29 08:59:32;;;;;;;0.10;0.10;;;;;;;22.63;53.90;101219.06;5090121;28;20052;-38
2022/07/29 09:01:59;;;;;;;0.20;0.20;;;;;;;22.64;54.06;101225.44;5109177;28;20466;-37
2022/07/29 09:04:29;;;;;;;0.10;0.10;;;;;;;22.63;53.82;101219.06;5106067;28;20493;-37
2022/07/29 09:06:57;;;;;;;0.10;0.10;;;;;;;22.63;53.60;101219.06;5110048;28;20147;-38
2022/07/29 09:09:22;;;;;;;0.10;0.10;;;;;;;22.64;53.89;101217.94;5087180;28;20461;-37
2022/07/29 09:11:48;;;;;;;0.10;0.10;;;;;;;22.64;53.76;101219.88;5108398;28;20130;-37
2022/07/29 09:14:14;;;;;;;0.10;0.10;;;;;;;22.63;53.81;101219.06;5107845;28;20078;-37
2022/07/29 09:16:50;;;;;;;0.10;0.10;;;;;;;22.64;53.84;101219.88;5102153;28;20056;-38
2022/07/29 09:19:20;;;;;;;0.10;0.10;;;;;;;22.64;53.80;101228.22;5090275;28;20054;-37
2022/07/29 09:22:01;;;;;;;0.10;0.10;;;;;;;22.63;53.74;101223.78;5103946;28;20084;-38
2022/07/29 09:24:41;;;;;;;0.10;0.10;;;;;;;22.63;53.96;101219.06;5104109;28;20042;-37
2022/07/29 09:27:10;;;;;;;0.10;0.10;;;;;;;22.63;53.77;101221.00;5090717;28;20466;-37
2022/07/29 09:29:36;;;;;;;0.10;0.10;;;;;;;22.63;53.92;101227.38;5086041;28;20075;-39
2022/07/29 09:32:05;;;;;;;0.10;0.10;;;;;;;22.63;53.69;101218.22;5107051;28;20557;-39
2022/07/29 09:34:31;;;;;;;0.10;0.10;;;;;;;22.63;53.89;101229.34;5086813;28;20466;-38
2022/07/29 09:36:57;;;;;;;0.10;0.10;;;;;;;22.63;53.74;101221.84;5112781;28;20046;-38
2022/07/29 09:39:45;;;;;;;0.10;0.10;;;;;;;22.63;53.96;101223.78;5106497;28;20142;-38
2022/07/29 09:42:11;;;;;;;0.10;0.10;;;;;;;22.63;53.85;101232.13;5103876;28;20047;-38
2022/07/29 09:44:46;;;;;;;0.10;0.10;;;;;;;22.63;53.72;101229.34;5073793;28;20367;-38
2022/07/29 09:47:12;;;;;;;0.10;0.10;;;;;;;22.63;53.74;101230.16;5086683;28;20070;-39
2022/07/29 09:49:58;;;;;;;0.10;0.10;;;;;;;22.63;53.88;101230.16;5101716;28;20047;-36
2022/07/29 09:52:25;;;;;;;0.10;0.10;;;;;;;22.63;53.82;101229.34;5097965;28;20036;-37
2022/07/29 09:54:52;;;;;;;0.10;0.10;;;;;;;22.63;53.82;101227.38;5103282;28;20063;-37
2022/07/29 09:57:24;;;;;;;0.10;0.10;;;;;;;22.63;53.84;101232.13;5106178;28;20079;-38
2022/07/29 09:59:57;;;;;;;0.10;0.10;;;;;;;22.63;53.99;101237.66;5098367;28;20048;-37
2022/07/29 10:02:27;;;;;;;0.10;0.10;;;;;;;22.63;53.87;101237.66;5088626;28;20130;-37
2022/07/29 10:04:53;;;;;;;0.10;0.10;;;;;;;22.62;53.81;101233.22;5106199;28;20516;-37
2022/07/29 10:07:19;;;;;;;0.10;0.10;;;;;;;22.63;53.81;101240.44;5107673;28;20039;-37
2022/07/29 10:10:00;;;;;;;0.10;0.10;;;;;;;22.63;53.84;101234.88;5106295;28;20094;-37
2022/07/29 10:12:27;;;;;;;0.10;0.10;;;;;;;22.63;53.87;101240.44;5114889;28;20413;-37
2022/07/29 10:14:52;;;;;;;0.10;0.10;;;;;;;22.62;53.71;101245.13;5106787;28;20127;-37
2022/07/29 10:17:19;;;;;;;0.10;0.10;;;;;;;22.62;53.84;101242.38;5110925;28;20486;-37
2022/07/29 10:19:44;;;;;;;0.10;0.10;;;;;;;22.61;53.97;101235.16;5109619;28;20071;-37
2022/07/29 10:22:10;;;;;;;0.10;0.10;;;;;;;22.62;53.85;101247.91;5092810;28;20060;-37
2022/07/29 10:24:37;;;;;;;0.10;0.10;;;;;;;22.61;53.90;101243.50;5091062;28;20425;-37
2022/07/29 10:27:06;;;;;;;0.10;0.10;;;;;;;22.61;54.06;101248.22;5107108;28;20040;-38
2022/07/29 10:29:32;;;;;;;0.10;0.10;;;;;;;22.62;53.77;101250.69;5098065;28;20143;-38
2022/07/29 10:32:09;;;;;;;0.10;0.10;;;;;;;22.62;53.98;101244.31;5097136;28;20050;-37
2022/07/29 10:34:53;;;;;;;0.10;0.10;;;;;;;22.62;53.79;101247.09;5111430;28;20071;-36
2022/07/29 10:37:52;;;;;;;0.10;0.10;;;;;;;22.62;53.90;101250.69;5109688;28;20123;-39
2022/07/29 10:43:19;;;;;;;0.10;0.10;;;;;;;22.61;53.94;101251.81;5090263;28;20054;-37
2022/07/29 10:45:47;;;;;;;0.10;0.10;;;;;;;22.62;53.72;101250.69;5106230;28;20054;-37
2022/07/29 10:48:15;;;;;;;0.10;0.10;;;;;;;22.62;53.93;101247.09;5110125;28;20043;-37
2022/07/29 10:51:03;;;;;;;0.10;0.10;;;;;;;22.62;53.85;101245.13;5115085;28;20059;-37
2022/07/29 10:53:50;;;;;;;0.10;0.10;;;;;;;22.61;53.89;101243.50;5097000;28;20051;-39
2022/07/29 10:56:33;;;;;;;0.10;0.10;;;;;;;22.62;53.75;101247.91;5090551;28;20241;-37
2022/07/29 11:01:57;;;;;;;0.10;0.10;;;;;;;22.61;53.96;101251.81;5169565;27;20205;-39
2022/07/29 11:07:22;;;;;;;0.10;0.10;;;;;;;22.62;54.08;101247.91;5158044;27;20574;-37
2022/07/29 11:12:51;;;;;;;0.10;0.10;;;;;;;22.62;53.91;101242.38;5176614;27;20200;-38
2022/07/29 11:15:21;;;;;;;0.10;0.10;;;;;;;22.62;53.84;101244.31;5152453;27;20035;-37
2022/07/29 11:20:44;;;;;;;0.10;0.10;;;;;;;22.61;53.91;101242.66;5161202;27;20201;-38
2022/07/29 11:23:18;;;;;;;0.10;0.10;;;;;;;22.61;53.95;101242.66;5161651;27;20508;-36
2022/07/29 11:25:44;;;;;;;0.10;0.10;;;;;;;22.61;53.97;101237.94;5137055;27;20515;-39
2022/07/29 11:28:19;;;;;;;0.10;0.10;;;;;;;22.61;54.00;101237.94;5158006;27;20047;-38
2022/07/29 11:30:52;;;;;;;0.10;0.10;;;;;;;22.61;53.85;101242.66;5158088;27;20045;-38
2022/07/29 11:33:33;;;;;;;0.10;0.10;;;;;;;22.61;53.84;101243.50;5159080;27;20042;-38
2022/07/29 11:36:19;;;;;;;0.10;0.10;;;;;;;22.61;54.03;101246.25;5139712;27;21287;-38
2022/07/29 11:39:28;;;;;;;0.10;0.10;;;;;;;22.61;53.76;101243.50;5157829;27;20039;-39
2022/07/29 11:45:10;;;;;;;0.10;0.10;;;;;;;22.60;53.76;101239.06;5176194;27;20112;-39
2022/07/29 11:47:58;;;;;;;0.10;0.10;;;;;;;22.61;53.89;101237.94;5140115;27;20488;-39
2022/07/29 11:50:43;;;;;;;;;;;;;;;22.60;53.87;101243.81;5139167;27;20039;-39
2022/07/29 11:53:12;;;;;;;0.10;0.10;;;;;;;22.61;53.88;101246.25;5159163;27;20413;-39
2022/07/29 11:55:39;;;;;;;0.10;0.10;;;;;;;22.61;53.91;101251.00;5141413;27;20086;-39
2022/07/29 11:58:21;;;;;;;0.10;0.10;;;;;;;22.61;53.89;101240.72;5144072;27;20043;-39